sensor_id;sensor_type;location;lat;lon;timestamp;pressure;altitude;pressure_sealevel;temperature;humidity
36304;BME280;22335;49.800;8.596;2024-03-17T00:00:07;101342.91;;;13.15;54.40
36304;BME280;22335;49.800;8.596;2024-03-17T00:06:56;101342.66;;;13.06;54.43
36304;BME280;22335;49.800;8.596;2024-03-17T00:13:39;101346.50;;;13.10;54.30
36304;BME280;22335;49.800;8.596;2024-03-17T00:20:21;101333.88;;;13.04;54.52
36304;BME280;22335;49.800;8.596;2024-03-17T00:27:07;101327.03;;;13.02;54.42
36304;BME280;22335;49.800;8.596;2024-03-17T00:33:51;101308.66;;;12.92;54.57
36304;BME280;22335;49.800;8.596;2024-03-17T00:40:34;101319.34;;;12.99;54.25
36304;BME280;22335;49.800;8.596;2024-03-17T00:47:18;101318.84;;;12.86;54.50
36304;BME280;22335;49.800;8.596;2024-03-17T00:54:00;101310.88;;;12.80;54.45
36304;BME280;22335;49.800;8.596;2024-03-17T01:00:43;101307.34;;;12.74;54.37
36304;BME280;22335;49.800;8.596;2024-03-17T01:07:27;101300.47;;;12.66;54.18
36304;BME280;22335;49.800;8.596;2024-03-17T01:14:10;101297.22;;;12.64;54.24
36304;BME280;22335;49.800;8.596;2024-03-17T01:20:52;101283.78;;;12.58;54.26
36304;BME280;22335;49.800;8.596;2024-03-17T01:27:36;101276.63;;;12.57;54.17
36304;BME280;22335;49.800;8.596;2024-03-17T01:34:19;101273.88;;;12.57;54.11
36304;BME280;22335;49.800;8.596;2024-03-17T01:41:02;101267.56;;;12.56;54.40
36304;BME280;22335;49.800;8.596;2024-03-17T01:47:47;101262.66;;;12.48;54.45
36304;BME280;22335;49.800;8.596;2024-03-17T01:54:29;101252.81;;;12.32;54.06
36304;BME280;22335;49.800;8.596;2024-03-17T02:01:12;101245.97;;;12.14;54.46
36304;BME280;22335;49.800;8.596;2024-03-17T02:07:57;101238.03;;;11.97;54.58
36304;BME280;22335;49.800;8.596;2024-03-17T02:14:40;101229.81;;;11.87;54.37
36304;BME280;22335;49.800;8.596;2024-03-17T02:21:23;101231.72;;;11.71;54.35
36304;BME280;22335;49.800;8.596;2024-03-17T02:28:09;101222.66;;;11.60;54.50
36304;BME280;22335;49.800;8.596;2024-03-17T02:34:51;101233.03;;;11.58;54.41
36304;BME280;22335;49.800;8.596;2024-03-17T02:41:34;101212.22;;;11.52;54.49
36304;BME280;22335;49.800;8.596;2024-03-17T02:48:18;101210.03;;;11.44;54.50
36304;BME280;22335;49.800;8.596;2024-03-17T02:55:03;101206.47;;;11.38;54.62
36304;BME280;22335;49.800;8.596;2024-03-17T03:01:47;101202.88;;;11.22;54.43
36304;BME280;22335;49.800;8.596;2024-03-17T03:08:31;101203.94;;;11.06;54.36
36304;BME280;22335;49.800;8.596;2024-03-17T03:15:14;101202.00;;;10.96;54.56
36304;BME280;22335;49.800;8.596;2024-03-17T03:21:56;101200.59;;;10.89;54.35
36304;BME280;22335;49.800;8.596;2024-03-17T03:28:40;101217.44;;;10.60;54.26
36304;BME280;22335;49.800;8.596;2024-03-17T03:35:23;101234.25;;;10.36;54.48
36304;BME280;22335;49.800;8.596;2024-03-17T03:42:07;101235.91;;;10.37;54.56
36304;BME280;22335;49.800;8.596;2024-03-17T04:03:53;101233.25;;;10.53;54.75
36304;BME280;22335;49.800;8.596;2024-03-17T04:10:36;101233.00;;;10.54;54.57
36304;BME280;22335;49.800;8.596;2024-03-17T04:17:18;101228.91;;;10.57;54.75
36304;BME280;22335;49.800;8.596;2024-03-17T04:24:04;101221.47;;;10.52;54.49
36304;BME280;22335;49.800;8.596;2024-03-17T04:30:47;101246.91;;;10.53;54.48
36304;BME280;22335;49.800;8.596;2024-03-17T04:37:30;101232.13;;;10.49;54.41
36304;BME280;22335;49.800;8.596;2024-03-17T04:44:20;101210.63;;;10.20;54.42
36304;BME280;22335;49.800;8.596;2024-03-17T04:51:03;101236.09;;;10.26;54.49
36304;BME280;22335;49.800;8.596;2024-03-17T04:57:46;101234.06;;;10.11;54.34
36304;BME280;22335;49.800;8.596;2024-03-17T05:04:31;101236.94;;;9.94;54.65
36304;BME280;22335;49.800;8.596;2024-03-17T05:11:13;101230.84;;;9.82;54.35
36304;BME280;22335;49.800;8.596;2024-03-17T05:17:56;101221.94;;;9.64;54.63
36304;BME280;22335;49.800;8.596;2024-03-17T05:24:41;101224.94;;;9.36;54.56
36304;BME280;22335;49.800;8.596;2024-03-17T05:31:23;101223.91;;;9.15;55.33
36304;BME280;22335;49.800;8.596;2024-03-17T05:38:06;101228.41;;;9.04;55.32
36304;BME280;22335;49.800;8.596;2024-03-17T05:44:52;101225.13;;;9.02;54.90
36304;BME280;22335;49.800;8.596;2024-03-17T05:51:35;100997.25;;;7.69;55.48
36304;BME280;22335;49.800;8.596;2024-03-17T05:58:17;101225.34;;;9.22;55.12
36304;BME280;22335;49.800;8.596;2024-03-17T06:05:02;101230.13;;;9.37;55.17
36304;BME280;22335;49.800;8.596;2024-03-17T06:11:45;101220.53;;;9.62;54.94
36304;BME280;22335;49.800;8.596;2024-03-17T06:18:28;101154.19;;;9.29;54.85
36304;BME280;22335;49.800;8.596;2024-03-17T06:25:13;101220.75;;;9.87;54.96
36304;BME280;22335;49.800;8.596;2024-03-17T06:31:55;101211.84;;;10.02;55.21
36304;BME280;22335;49.800;8.596;2024-03-17T06:38:38;101208.88;;;10.09;55.02
36304;BME280;22335;49.800;8.596;2024-03-17T06:45:23;101221.44;;;10.05;55.30
36304;BME280;22335;49.800;8.596;2024-03-17T06:52:05;101191.56;;;9.93;55.13
36304;BME280;22335;49.800;8.596;2024-03-17T06:58:48;101223.84;;;10.33;55.38
36304;BME280;22335;49.800;8.596;2024-03-17T07:05:33;101206.19;;;10.51;55.56
36304;BME280;22335;49.800;8.596;2024-03-17T07:12:16;101211.47;;;10.73;55.10
36304;BME280;22335;49.800;8.596;2024-03-17T07:19:01;101163.53;;;10.60;55.06
36304;BME280;22335;49.800;8.596;2024-03-17T07:25:53;101158.44;;;10.84;54.94
36304;BME280;22335;49.800;8.596;2024-03-17T07:32:36;101203.44;;;11.35;54.67
36304;BME280;22335;49.800;8.596;2024-03-17T07:39:18;101210.31;;;11.47;54.42
36304;BME280;22335;49.800;8.596;2024-03-17T07:46:03;101194.16;;;11.82;54.35
36304;BME280;22335;49.800;8.596;2024-03-17T07:52:47;101189.75;;;12.21;54.25
36304;BME280;22335;49.800;8.596;2024-03-17T07:59:29;101194.28;;;12.57;54.13
36304;BME280;22335;49.800;8.596;2024-03-17T08:06:13;101203.25;;;12.83;53.55
36304;BME280;22335;49.800;8.596;2024-03-17T08:12:56;101201.25;;;13.04;53.19
36304;BME280;22335;49.800;8.596;2024-03-17T08:19:38;101199.25;;;13.14;53.16
36304;BME280;22335;49.800;8.596;2024-03-17T08:26:23;101202.50;;;13.27;52.98
36304;BME280;22335;49.800;8.596;2024-03-17T08:33:05;101200.50;;;13.37;52.98
36304;BME280;22335;49.800;8.596;2024-03-17T08:39:49;101210.53;;;13.57;52.37
36304;BME280;22335;49.800;8.596;2024-03-17T08:46:33;101195.53;;;13.79;52.75
36304;BME280;22335;49.800;8.596;2024-03-17T08:53:16;101185.47;;;13.93;52.47
36304;BME280;22335;49.800;8.596;2024-03-17T08:59:58;101192.53;;;14.04;52.20
36304;BME280;22335;49.800;8.596;2024-03-17T09:06:42;101192.38;;;14.20;51.75
36304;BME280;22335;49.800;8.596;2024-03-17T09:13:25;101178.06;;;14.23;51.54
36304;BME280;22335;49.800;8.596;2024-03-17T09:20:11;101181.81;;;14.32;51.17
36304;BME280;22335;49.800;8.596;2024-03-17T09:26:56;101177.25;;;14.46;51.69
36304;BME280;22335;49.800;8.596;2024-03-17T09:33:39;101173.81;;;14.60;51.00
36304;BME280;22335;49.800;8.596;2024-03-17T09:40:22;101173.81;;;14.60;51.32
36304;BME280;22335;49.800;8.596;2024-03-17T09:47:07;101165.72;;;14.68;50.90
36304;BME280;22335;49.800;8.596;2024-03-17T09:53:50;101168.19;;;14.89;50.79
36304;BME280;22335;49.800;8.596;2024-03-17T10:00:32;101164.19;;;15.19;50.50
36304;BME280;22335;49.800;8.596;2024-03-17T10:07:16;101148.84;;;15.32;50.02
36304;BME280;22335;49.800;8.596;2024-03-17T10:14:00;101157.94;;;15.65;49.93
36304;BME280;22335;49.800;8.596;2024-03-17T10:20:43;101147.38;;;15.72;49.05
36304;BME280;22335;49.800;8.596;2024-03-17T10:27:28;101145.38;;;15.91;48.83
36304;BME280;22335;49.800;8.596;2024-03-17T10:34:15;101136.72;;;15.98;48.81
36304;BME280;22335;49.800;8.596;2024-03-17T10:40:59;101144.59;;;16.05;48.48
36304;BME280;22335;49.800;8.596;2024-03-17T10:47:47;101141.09;;;16.13;48.52
36304;BME280;22335;49.800;8.596;2024-03-17T10:54:31;101137.97;;;16.20;48.67
36304;BME280;22335;49.800;8.596;2024-03-17T11:01:14;101138.47;;;16.35;48.63
36304;BME280;22335;49.800;8.596;2024-03-17T11:07:58;101127.13;;;16.37;48.74
36304;BME280;22335;49.800;8.596;2024-03-17T11:14:42;101129.16;;;16.45;48.82
36304;BME280;22335;49.800;8.596;2024-03-17T11:21:25;101116.97;;;16.60;49.13
36304;BME280;22335;49.800;8.596;2024-03-17T11:28:10;101107.75;;;16.78;48.59
36304;BME280;22335;49.800;8.596;2024-03-17T11:35:12;101103.75;;;16.85;49.33
36304;BME280;22335;49.800;8.596;2024-03-17T11:41:55;101108.81;;;17.05;48.67
36304;BME280;22335;49.800;8.596;2024-03-17T11:48:52;101098.72;;;17.23;48.24
36304;BME280;22335;49.800;8.596;2024-03-17T11:55:36;101100.41;;;17.33;48.29
36304;BME280;22335;49.800;8.596;2024-03-17T12:02:22;101092.94;;;17.33;48.00
36304;BME280;22335;49.800;8.596;2024-03-17T12:09:18;101098.19;;;17.43;47.72
36304;BME280;22335;49.800;8.596;2024-03-17T12:16:12;101093.50;;;17.44;48.14
36304;BME280;22335;49.800;8.596;2024-03-17T12:22:54;101083.34;;;17.62;47.61
36304;BME280;22335;49.800;8.596;2024-03-17T12:29:39;101083.34;;;17.62;47.73
36304;BME280;22335;49.800;8.596;2024-03-17T12:36:22;101078.75;;;17.57;47.90
36304;BME280;22335;49.800;8.596;2024-03-17T12:43:04;101073.75;;;17.59;47.74
36304;BME280;22335;49.800;8.596;2024-03-17T12:49:50;101052.38;;;17.51;48.02
36304;BME280;22335;49.800;8.596;2024-03-17T12:56:34;101061.59;;;17.69;47.58
36304;BME280;22335;49.800;8.596;2024-03-17T13:03:35;101045.97;;;17.73;47.58
36304;BME280;22335;49.800;8.596;2024-03-17T13:10:22;101039.63;;;17.72;47.44
36304;BME280;22335;49.800;8.596;2024-03-17T13:17:06;101011.16;;;17.72;47.17
36304;BME280;22335;49.800;8.596;2024-03-17T13:23:49;101017.09;;;17.88;47.13
36304;BME280;22335;49.800;8.596;2024-03-17T13:30:33;101009.94;;;17.95;46.80
36304;BME280;22335;49.800;8.596;2024-03-17T13:37:16;100999.38;;;17.97;46.86
36304;BME280;22335;49.800;8.596;2024-03-17T13:43:59;100988.44;;;17.92;46.92
36304;BME280;22335;49.800;8.596;2024-03-17T13:50:43;100980.69;;;18.03;46.78
36304;BME280;22335;49.800;8.596;2024-03-17T13:57:28;100961.63;;;18.10;46.33
36304;BME280;22335;49.800;8.596;2024-03-17T14:04:13;100952.19;;;18.11;46.55
36304;BME280;22335;49.800;8.596;2024-03-17T14:10:57;100949.59;;;18.24;46.21
36304;BME280;22335;49.800;8.596;2024-03-17T14:17:41;100946.16;;;18.27;46.64
36304;BME280;22335;49.800;8.596;2024-03-17T14:24:24;100943.59;;;18.30;46.47
36304;BME280;22335;49.800;8.596;2024-03-17T14:31:08;100942.75;;;18.30;46.68
36304;BME280;22335;49.800;8.596;2024-03-17T14:37:52;100889.81;;;18.05;46.37
36304;BME280;22335;49.800;8.596;2024-03-17T14:44:35;100944.25;;;18.27;46.35
36304;BME280;22335;49.800;8.596;2024-03-17T14:51:20;100939.97;;;18.30;46.48
36304;BME280;22335;49.800;8.596;2024-03-17T14:58:03;100923.22;;;18.35;46.60
36304;BME280;22335;49.800;8.596;2024-03-17T15:04:47;100911.66;;;18.41;46.51
36304;BME280;22335;49.800;8.596;2024-03-17T15:11:33;100903.34;;;18.50;46.68
36304;BME280;22335;49.800;8.596;2024-03-17T15:18:16;100900.41;;;18.55;46.48
36304;BME280;22335;49.800;8.596;2024-03-17T15:24:58;100887.16;;;18.61;46.36
36304;BME280;22335;49.800;8.596;2024-03-17T15:31:42;100894.03;;;18.63;46.41
36304;BME280;22335;49.800;8.596;2024-03-17T15:38:25;100892.72;;;18.70;46.31
36304;BME280;22335;49.800;8.596;2024-03-17T15:45:08;100893.19;;;18.72;46.30
36304;BME280;22335;49.800;8.596;2024-03-17T15:51:52;100878.38;;;18.76;46.64
36304;BME280;22335;49.800;8.596;2024-03-17T15:58:34;100874.13;;;18.79;46.78
36304;BME280;22335;49.800;8.596;2024-03-17T16:05:19;100860.28;;;18.79;46.64
36304;BME280;22335;49.800;8.596;2024-03-17T16:12:03;100865.00;;;18.78;46.72
36304;BME280;22335;49.800;8.596;2024-03-17T16:18:47;100858.31;;;18.79;46.84
36304;BME280;22335;49.800;8.596;2024-03-17T16:25:30;100859.81;;;18.77;46.81
36304;BME280;22335;49.800;8.596;2024-03-17T16:32:13;100848.25;;;18.75;46.31
36304;BME280;22335;49.800;8.596;2024-03-17T16:38:59;100852.44;;;18.72;46.68
36304;BME280;22335;49.800;8.596;2024-03-17T16:45:49;100853.63;;;18.62;46.78
36304;BME280;22335;49.800;8.596;2024-03-17T16:52:41;100843.34;;;18.63;47.01
36304;BME280;22335;49.800;8.596;2024-03-17T16:59:24;100838.16;;;18.61;46.95
36304;BME280;22335;49.800;8.596;2024-03-17T17:06:06;100844.34;;;18.58;47.13
36304;BME280;22335;49.800;8.596;2024-03-17T17:12:51;100846.78;;;18.42;47.00
36304;BME280;22335;49.800;8.596;2024-03-17T17:19:34;100846.81;;;18.34;46.85
36304;BME280;22335;49.800;8.596;2024-03-17T17:26:18;100785.13;;;17.90;46.39
36304;BME280;22335;49.800;8.596;2024-03-17T17:33:04;100846.03;;;18.25;46.32
36304;BME280;22335;49.800;8.596;2024-03-17T17:39:46;100838.84;;;18.24;46.22
36304;BME280;22335;49.800;8.596;2024-03-17T17:46:29;100824.03;;;18.19;45.98
36304;BME280;22335;49.800;8.596;2024-03-17T17:53:13;100815.56;;;18.16;46.16
36304;BME280;22335;49.800;8.596;2024-03-17T17:59:56;100830.72;;;18.18;45.96
36304;BME280;22335;49.800;8.596;2024-03-17T18:06:38;100837.38;;;18.17;46.18
36304;BME280;22335;49.800;8.596;2024-03-17T18:13:23;100834.13;;;18.15;46.00
36304;BME280;22335;49.800;8.596;2024-03-17T18:20:07;100831.88;;;18.09;45.58
36304;BME280;22335;49.800;8.596;2024-03-17T18:26:50;100848.13;;;18.02;46.22
36304;BME280;22335;49.800;8.596;2024-03-17T18:33:35;100840.16;;;18.00;46.43
36304;BME280;22335;49.800;8.596;2024-03-17T18:40:18;100841.63;;;18.06;46.19
36304;BME280;22335;49.800;8.596;2024-03-17T18:47:01;100841.28;;;18.08;46.38
36304;BME280;22335;49.800;8.596;2024-03-17T18:53:45;100841.13;;;18.04;46.08
36304;BME280;22335;49.800;8.596;2024-03-17T19:00:32;100847.66;;;17.91;46.30
36304;BME280;22335;49.800;8.596;2024-03-17T19:07:15;100852.34;;;17.82;46.58
36304;BME280;22335;49.800;8.596;2024-03-17T19:13:59;100839.75;;;17.67;46.73
36304;BME280;22335;49.800;8.596;2024-03-17T19:20:41;100840.72;;;17.54;46.98
36304;BME280;22335;49.800;8.596;2024-03-17T19:27:24;100843.63;;;17.48;47.03
36304;BME280;22335;49.800;8.596;2024-03-17T19:34:08;100824.09;;;17.45;46.96
36304;BME280;22335;49.800;8.596;2024-03-17T19:40:52;100799.38;;;17.40;46.99
36304;BME280;22335;49.800;8.596;2024-03-17T19:47:36;100806.03;;;17.39;47.06
36304;BME280;22335;49.800;8.596;2024-03-17T19:54:20;100804.22;;;17.25;47.22
36304;BME280;22335;49.800;8.596;2024-03-17T20:01:03;100798.28;;;17.01;47.51
36304;BME280;22335;49.800;8.596;2024-03-17T20:07:46;100796.59;;;16.82;47.72
36304;BME280;22335;49.800;8.596;2024-03-17T20:14:30;100803.25;;;16.59;47.97
36304;BME280;22335;49.800;8.596;2024-03-17T20:21:13;100798.00;;;16.49;48.14
36304;BME280;22335;49.800;8.596;2024-03-17T20:27:55;100803.84;;;16.47;48.03
36304;BME280;22335;49.800;8.596;2024-03-17T20:34:39;100804.00;;;16.42;48.31
36304;BME280;22335;49.800;8.596;2024-03-17T20:41:22;100795.81;;;16.37;48.38
36304;BME280;22335;49.800;8.596;2024-03-17T20:48:05;100794.44;;;16.26;48.52
36304;BME280;22335;49.800;8.596;2024-03-17T20:54:49;100791.47;;;16.13;48.66
36304;BME280;22335;49.800;8.596;2024-03-17T21:01:32;100784.38;;;15.99;49.01
36304;BME280;22335;49.800;8.596;2024-03-17T21:08:14;100787.78;;;15.82;49.11
36304;BME280;22335;49.800;8.596;2024-03-17T21:14:59;100776.06;;;15.76;49.41
36304;BME280;22335;49.800;8.596;2024-03-17T21:21:42;100767.59;;;15.73;49.32
36304;BME280;22335;49.800;8.596;2024-03-17T21:28:25;100766.69;;;15.63;49.61
36304;BME280;22335;49.800;8.596;2024-03-17T21:35:11;100747.50;;;15.58;49.62
36304;BME280;22335;49.800;8.596;2024-03-17T21:41:53;100751.28;;;15.62;49.80
36304;BME280;22335;49.800;8.596;2024-03-17T21:48:36;100742.81;;;15.59;49.64
36304;BME280;22335;49.800;8.596;2024-03-17T21:55:20;100729.19;;;15.40;50.00
36304;BME280;22335;49.800;8.596;2024-03-17T22:02:03;100720.31;;;15.29;50.06
36304;BME280;22335;49.800;8.596;2024-03-17T22:08:46;100717.41;;;15.12;50.27
36304;BME280;22335;49.800;8.596;2024-03-17T22:15:29;100711.00;;;15.03;50.26
36304;BME280;22335;49.800;8.596;2024-03-17T22:22:13;100710.81;;;14.99;50.44
36304;BME280;22335;49.800;8.596;2024-03-17T22:28:56;100701.13;;;14.88;50.50
36304;BME280;22335;49.800;8.596;2024-03-17T22:35:40;100701.59;;;15.04;50.81
36304;BME280;22335;49.800;8.596;2024-03-17T22:42:23;100711.09;;;15.11;50.57
36304;BME280;22335;49.800;8.596;2024-03-17T22:49:05;100702.00;;;15.11;51.18
36304;BME280;22335;49.800;8.596;2024-03-17T22:55:51;100705.44;;;15.16;51.31
36304;BME280;22335;49.800;8.596;2024-03-17T23:02:35;100701.25;;;15.19;51.19
36304;BME280;22335;49.800;8.596;2024-03-17T23:09:18;100690.63;;;15.26;51.19
36304;BME280;22335;49.800;8.596;2024-03-17T23:16:03;100674.44;;;15.11;51.26
36304;BME280;22335;49.800;8.596;2024-03-17T23:22:46;100680.81;;;15.34;51.19
36304;BME280;22335;49.800;8.596;2024-03-17T23:29:30;100677.44;;;15.37;51.30
36304;BME280;22335;49.800;8.596;2024-03-17T23:36:15;100676.50;;;15.41;51.58
36304;BME280;22335;49.800;8.596;2024-03-17T23:42:58;100679.44;;;15.45;51.41
36304;BME280;22335;49.800;8.596;2024-03-17T23:49:42;100672.81;;;15.46;51.49
36304;BME280;22335;49.800;8.596;2024-03-17T23:56:25;100655.66;;;15.49;51.61
